sensor_id;sensor_type;location;lat;lon;timestamp;pressure;altitude;pressure_sealevel;temperature;humidity
16834;BME280;8533;48.426;10.868;2023-03-14T00:01:59;94703.77;;;8.65;100.00
16834;BME280;8533;48.426;10.868;2023-03-14T00:04:29;94701.42;;;8.66;100.00
16834;BME280;8533;48.426;10.868;2023-03-14T00:06:57;94691.78;;;8.66;100.00
16834;BME280;8533;48.426;10.868;2023-03-14T00:09:24;94683.17;;;8.66;100.00
16834;BME280;8533;48.426;10.868;2023-03-14T00:11:55;94681.58;;;8.70;100.00
16834;BME280;8533;48.426;10.868;2023-03-14T00:14:23;94692.00;;;8.72;100.00
16834;BME280;8533;48.426;10.868;2023-03-14T00:16:50;94695.64;;;8.74;100.00
16834;BME280;8533;48.426;10.868;2023-03-14T00:19:18;94693.53;;;8.76;100.00
16834;BME280;8533;48.426;10.868;2023-03-14T00:21:46;94697.95;;;8.80;100.00
16834;BME280;8533;48.426;10.868;2023-03-14T00:24:13;94694.56;;;8.83;100.00
16834;BME280;8533;48.426;10.868;2023-03-14T00:26:41;94695.31;;;8.86;100.00
16834;BME280;8533;48.426;10.868;2023-03-14T00:29:08;94694.00;;;8.86;100.00
16834;BME280;8533;48.426;10.868;2023-03-14T00:31:36;94675.74;;;8.91;100.00
16834;BME280;8533;48.426;10.868;2023-03-14T00:34:05;94690.81;;;8.99;100.00
16834;BME280;8533;48.426;10.868;2023-03-14T00:36:32;94692.59;;;9.06;100.00
16834;BME280;8533;48.426;10.868;2023-03-14T00:39:00;94681.37;;;9.08;100.00
16834;BME280;8533;48.426;10.868;2023-03-14T00:41:27;94683.72;;;9.07;100.00
16834;BME280;8533;48.426;10.868;2023-03-14T00:43:55;94682.43;;;9.04;100.00
16834;BME280;8533;48.426;10.868;2023-03-14T00:46:22;94683.73;;;9.02;100.00
16834;BME280;8533;48.426;10.868;2023-03-14T00:48:50;94683.25;;;9.00;100.00
16834;BME280;8533;48.426;10.868;2023-03-14T00:51:17;94685.61;;;8.96;100.00
16834;BME280;8533;48.426;10.868;2023-03-14T00:53:45;94696.05;;;8.94;100.00
16834;BME280;8533;48.426;10.868;2023-03-14T00:56:13;94710.42;;;8.91;100.00
16834;BME280;8533;48.426;10.868;2023-03-14T00:58:41;94715.11;;;8.89;100.00
16834;BME280;8533;48.426;10.868;2023-03-14T01:01:12;94720.08;;;8.86;100.00
16834;BME280;8533;48.426;10.868;2023-03-14T01:03:39;94727.41;;;8.78;100.00
16834;BME280;8533;48.426;10.868;2023-03-14T01:06:11;94719.11;;;8.74;100.00
16834;BME280;8533;48.426;10.868;2023-03-14T01:08:37;94724.33;;;8.69;100.00
16834;BME280;8533;48.426;10.868;2023-03-14T01:11:10;94722.53;;;8.64;100.00
16834;BME280;8533;48.426;10.868;2023-03-14T01:13:39;94725.39;;;8.65;100.00
16834;BME280;8533;48.426;10.868;2023-03-14T01:16:09;94736.34;;;8.60;100.00
16834;BME280;8533;48.426;10.868;2023-03-14T01:18:38;94739.24;;;8.58;100.00
16834;BME280;8533;48.426;10.868;2023-03-14T01:23:44;94730.38;;;8.52;100.00
16834;BME280;8533;48.426;10.868;2023-03-14T01:26:16;94736.41;;;8.47;100.00
16834;BME280;8533;48.426;10.868;2023-03-14T01:28:45;94741.13;;;8.40;100.00
16834;BME280;8533;48.426;10.868;2023-03-14T01:31:14;94743.75;;;8.32;100.00
16834;BME280;8533;48.426;10.868;2023-03-14T01:33:42;94728.38;;;8.31;100.00
16834;BME280;8533;48.426;10.868;2023-03-14T01:36:10;94722.12;;;8.24;100.00
16834;BME280;8533;48.426;10.868;2023-03-14T01:38:39;94715.37;;;8.16;100.00
16834;BME280;8533;48.426;10.868;2023-03-14T01:41:09;94699.77;;;8.11;100.00
16834;BME280;8533;48.426;10.868;2023-03-14T01:43:36;94678.41;;;8.03;100.00
16834;BME280;8533;48.426;10.868;2023-03-14T01:48:45;94633.13;;;7.97;100.00
16834;BME280;8533;48.426;10.868;2023-03-14T01:51:12;94590.72;;;7.91;100.00
16834;BME280;8533;48.426;10.868;2023-03-14T01:53:40;94580.84;;;7.88;100.00
16834;BME280;8533;48.426;10.868;2023-03-14T01:56:11;94583.73;;;7.84;100.00
16834;BME280;8533;48.426;10.868;2023-03-14T01:58:41;94566.03;;;7.84;100.00
16834;BME280;8533;48.426;10.868;2023-03-14T02:01:09;94544.42;;;7.83;100.00
16834;BME280;8533;48.426;10.868;2023-03-14T02:03:42;94547.80;;;7.81;100.00
16834;BME280;8533;48.426;10.868;2023-03-14T02:06:08;94537.40;;;7.81;100.00
16834;BME280;8533;48.426;10.868;2023-03-14T02:08:37;94527.77;;;7.82;100.00
16834;BME280;8533;48.426;10.868;2023-03-14T02:11:07;94533.49;;;7.84;100.00
16834;BME280;8533;48.426;10.868;2023-03-14T02:13:35;94544.42;;;7.83;100.00
16834;BME280;8533;48.426;10.868;2023-03-14T02:16:02;94549.38;;;7.82;100.00
16834;BME280;8533;48.426;10.868;2023-03-14T02:18:30;94551.45;;;7.83;100.00
16834;BME280;8533;48.426;10.868;2023-03-14T02:23:53;94581.91;;;7.82;100.00
16834;BME280;8533;48.426;10.868;2023-03-14T02:26:20;94591.77;;;7.88;100.00
16834;BME280;8533;48.426;10.868;2023-03-14T02:28:48;94594.89;;;7.90;100.00
16834;BME280;8533;48.426;10.868;2023-03-14T02:31:16;94590.20;;;7.89;100.00
16834;BME280;8533;48.426;10.868;2023-03-14T02:33:43;94588.64;;;7.88;100.00
16834;BME280;8533;48.426;10.868;2023-03-14T02:36:14;94595.18;;;7.86;100.00
16834;BME280;8533;48.426;10.868;2023-03-14T02:38:55;94587.38;;;7.86;100.00
16834;BME280;8533;48.426;10.868;2023-03-14T02:41:20;94584.25;;;7.86;100.00
16834;BME280;8533;48.426;10.868;2023-03-14T02:43:47;94589.45;;;7.86;100.00
16834;BME280;8533;48.426;10.868;2023-03-14T02:46:17;94577.48;;;7.85;100.00
16834;BME280;8533;48.426;10.868;2023-03-14T02:49:00;94581.91;;;7.85;100.00
16834;BME280;8533;48.426;10.868;2023-03-14T02:51:21;94581.13;;;7.84;100.00
16834;BME280;8533;48.426;10.868;2023-03-14T02:53:50;94573.05;;;7.83;100.00
16834;BME280;8533;48.426;10.868;2023-03-14T02:56:17;94568.89;;;7.82;100.00
16834;BME280;8533;48.426;10.868;2023-03-14T02:58:45;94558.22;;;7.81;100.00
16834;BME280;8533;48.426;10.868;2023-03-14T03:01:12;94567.06;;;7.83;100.00
16834;BME280;8533;48.426;10.868;2023-03-14T03:03:40;94558.73;;;7.83;100.00
16834;BME280;8533;48.426;10.868;2023-03-14T03:06:07;94549.37;;;7.85;100.00
16834;BME280;8533;48.426;10.868;2023-03-14T03:08:35;94542.86;;;7.85;100.00
16834;BME280;8533;48.426;10.868;2023-03-14T03:11:03;94534.80;;;7.84;100.00
16834;BME280;8533;48.426;10.868;2023-03-14T03:13:31;94538.92;;;7.87;100.00
16834;BME280;8533;48.426;10.868;2023-03-14T03:15:58;94531.90;;;7.90;100.00
16834;BME280;8533;48.426;10.868;2023-03-14T03:18:26;94540.48;;;7.93;100.00
16834;BME280;8533;48.426;10.868;2023-03-14T03:20:53;94536.55;;;7.96;100.00
16834;BME280;8533;48.426;10.868;2023-03-14T03:23:21;94538.63;;;7.96;100.00
16834;BME280;8533;48.426;10.868;2023-03-14T03:25:49;94537.88;;;7.93;100.00
16834;BME280;8533;48.426;10.868;2023-03-14T03:28:18;94526.42;;;7.94;100.00
16834;BME280;8533;48.426;10.868;2023-03-14T03:30:45;94519.92;;;7.94;100.00
16834;BME280;8533;48.426;10.868;2023-03-14T03:33:14;94525.39;;;7.93;100.00
16834;BME280;8533;48.426;10.868;2023-03-14T03:35:45;94526.43;;;7.89;100.00
16834;BME280;8533;48.426;10.868;2023-03-14T03:38:13;94519.14;;;7.91;100.00
16834;BME280;8533;48.426;10.868;2023-03-14T03:40:41;94517.32;;;7.92;100.00
16834;BME280;8533;48.426;10.868;2023-03-14T03:43:09;94516.27;;;7.93;100.00
16834;BME280;8533;48.426;10.868;2023-03-14T03:45:36;94514.97;;;7.93;100.00
16834;BME280;8533;48.426;10.868;2023-03-14T03:48:04;94510.81;;;7.92;100.00
16834;BME280;8533;48.426;10.868;2023-03-14T03:50:31;94497.80;;;7.89;100.00
16834;BME280;8533;48.426;10.868;2023-03-14T03:52:59;94505.34;;;7.88;100.00
16834;BME280;8533;48.426;10.868;2023-03-14T03:55:26;94506.13;;;7.89;100.00
16834;BME280;8533;48.426;10.868;2023-03-14T03:57:54;94500.17;;;7.86;100.00
16834;BME280;8533;48.426;10.868;2023-03-14T04:00:22;94499.66;;;7.79;100.00
16834;BME280;8533;48.426;10.868;2023-03-14T04:02:49;94505.64;;;7.82;100.00
16834;BME280;8533;48.426;10.868;2023-03-14T04:05:16;94489.25;;;7.81;100.00
16834;BME280;8533;48.426;10.868;2023-03-14T04:07:44;94498.36;;;7.81;100.00
16834;BME280;8533;48.426;10.868;2023-03-14T04:10:12;94497.06;;;7.79;100.00
16834;BME280;8533;48.426;10.868;2023-03-14T04:12:39;94498.66;;;7.77;100.00
16834;BME280;8533;48.426;10.868;2023-03-14T04:15:07;94509.84;;;7.78;100.00
16834;BME280;8533;48.426;10.868;2023-03-14T04:17:35;94503.59;;;7.74;100.00
16834;BME280;8533;48.426;10.868;2023-03-14T04:20:03;94503.86;;;7.72;100.00
16834;BME280;8533;48.426;10.868;2023-03-14T04:22:30;94506.46;;;7.72;100.00
16834;BME280;8533;48.426;10.868;2023-03-14T04:24:58;94505.42;;;7.73;100.00
16834;BME280;8533;48.426;10.868;2023-03-14T04:27:25;94507.27;;;7.70;100.00
16834;BME280;8533;48.426;10.868;2023-03-14T04:29:53;94510.63;;;7.71;100.00
16834;BME280;8533;48.426;10.868;2023-03-14T04:32:20;94513.26;;;7.68;100.00
16834;BME280;8533;48.426;10.868;2023-03-14T04:34:48;94496.61;;;7.66;100.00
16834;BME280;8533;48.426;10.868;2023-03-14T04:37:15;94498.69;;;7.67;100.00
16834;BME280;8533;48.426;10.868;2023-03-14T04:39:43;94503.14;;;7.61;100.00
16834;BME280;8533;48.426;10.868;2023-03-14T04:42:10;94494.03;;;7.59;100.00
16834;BME280;8533;48.426;10.868;2023-03-14T04:44:37;94494.30;;;7.60;100.00
16834;BME280;8533;48.426;10.868;2023-03-14T04:47:05;94472.97;;;7.58;100.00
16834;BME280;8533;48.426;10.868;2023-03-14T04:49:32;94489.09;;;7.60;100.00
16834;BME280;8533;48.426;10.868;2023-03-14T04:52:00;94478.69;;;7.60;100.00
16834;BME280;8533;48.426;10.868;2023-03-14T04:54:27;94475.83;;;7.56;100.00
16834;BME280;8533;48.426;10.868;2023-03-14T04:56:55;94466.20;;;7.59;100.00
16834;BME280;8533;48.426;10.868;2023-03-14T04:59:22;94460.44;;;7.62;100.00
16834;BME280;8533;48.426;10.868;2023-03-14T05:01:50;94452.93;;;7.61;100.00
16834;BME280;8533;48.426;10.868;2023-03-14T05:04:17;94446.69;;;7.59;100.00
16834;BME280;8533;48.426;10.868;2023-03-14T05:06:45;94452.15;;;7.58;100.00
16834;BME280;8533;48.426;10.868;2023-03-14T05:09:12;94454.23;;;7.58;100.00
16834;BME280;8533;48.426;10.868;2023-03-14T05:11:41;94448.50;;;7.61;100.00
16834;BME280;8533;48.426;10.868;2023-03-14T05:14:08;94442.00;;;7.59;100.00
16834;BME280;8533;48.426;10.868;2023-03-14T05:16:36;94445.39;;;7.57;100.00
16834;BME280;8533;48.426;10.868;2023-03-14T05:19:03;94450.11;;;7.52;100.00
16834;BME280;8533;48.426;10.868;2023-03-14T05:21:31;94446.17;;;7.57;100.00
16834;BME280;8533;48.426;10.868;2023-03-14T05:23:58;94449.06;;;7.53;100.00
16834;BME280;8533;48.426;10.868;2023-03-14T05:26:25;94445.42;;;7.52;100.00
16834;BME280;8533;48.426;10.868;2023-03-14T05:28:53;94445.16;;;7.53;100.00
16834;BME280;8533;48.426;10.868;2023-03-14T05:31:20;94444.37;;;7.53;100.00
16834;BME280;8533;48.426;10.868;2023-03-14T05:33:48;94443.08;;;7.53;100.00
16834;BME280;8533;48.426;10.868;2023-03-14T05:36:15;94442.56;;;7.51;100.00
16834;BME280;8533;48.426;10.868;2023-03-14T05:38:43;94437.39;;;7.46;100.00
16834;BME280;8533;48.426;10.868;2023-03-14T05:41:10;94436.84;;;7.46;100.00
16834;BME280;8533;48.426;10.868;2023-03-14T05:43:40;94431.16;;;7.44;100.00
16834;BME280;8533;48.426;10.868;2023-03-14T05:46:08;94426.21;;;7.43;100.00
16834;BME280;8533;48.426;10.868;2023-03-14T05:48:35;94422.83;;;7.45;100.00
16834;BME280;8533;48.426;10.868;2023-03-14T05:51:03;94415.02;;;7.45;100.00
16834;BME280;8533;48.426;10.868;2023-03-14T05:53:32;94409.30;;;7.43;100.00
16834;BME280;8533;48.426;10.868;2023-03-14T05:55:59;94396.00;;;7.47;100.00
16834;BME280;8533;48.426;10.868;2023-03-14T05:58:27;94391.33;;;7.46;100.00
16834;BME280;8533;48.426;10.868;2023-03-14T06:00:54;94392.62;;;7.49;100.00
16834;BME280;8533;48.426;10.868;2023-03-14T06:03:22;94398.08;;;7.50;100.00
16834;BME280;8533;48.426;10.868;2023-03-14T06:05:52;94392.62;;;7.49;100.00
16834;BME280;8533;48.426;10.868;2023-03-14T06:08:19;94395.22;;;7.49;100.00
16834;BME280;8533;48.426;10.868;2023-03-14T06:10:47;94390.53;;;7.51;100.00
16834;BME280;8533;48.426;10.868;2023-03-14T06:13:14;94387.67;;;7.52;100.00
16834;BME280;8533;48.426;10.868;2023-03-14T06:15:42;94387.64;;;7.55;100.00
16834;BME280;8533;48.426;10.868;2023-03-14T06:18:10;94376.22;;;7.53;100.00
16834;BME280;8533;48.426;10.868;2023-03-14T06:20:39;94375.14;;;7.57;100.00
16834;BME280;8533;48.426;10.868;2023-03-14T06:23:07;94372.81;;;7.55;100.00
16834;BME280;8533;48.426;10.868;2023-03-14T06:25:35;94374.89;;;7.56;100.00
16834;BME280;8533;48.426;10.868;2023-03-14T06:28:03;94375.41;;;7.58;100.00
16834;BME280;8533;48.426;10.868;2023-03-14T06:30:30;94374.88;;;7.58;100.00
16834;BME280;8533;48.426;10.868;2023-03-14T06:32:58;94379.79;;;7.62;100.00
16834;BME280;8533;48.426;10.868;2023-03-14T06:35:25;94378.70;;;7.71;100.00
16834;BME280;8533;48.426;10.868;2023-03-14T06:37:57;94367.70;;;7.82;100.00
16834;BME280;8533;48.426;10.868;2023-03-14T06:40:24;94368.21;;;7.86;100.00
16834;BME280;8533;48.426;10.868;2023-03-14T06:42:51;94364.27;;;7.89;100.00
16834;BME280;8533;48.426;10.868;2023-03-14T06:45:19;94353.86;;;7.89;100.00
16834;BME280;8533;48.426;10.868;2023-03-14T06:47:46;94356.97;;;7.93;100.00
16834;BME280;8533;48.426;10.868;2023-03-14T06:50:13;94358.52;;;7.94;100.00
16834;BME280;8533;48.426;10.868;2023-03-14T06:52:41;94357.96;;;7.97;100.00
16834;BME280;8533;48.426;10.868;2023-03-14T06:55:10;94362.39;;;7.97;100.00
16834;BME280;8533;48.426;10.868;2023-03-14T06:57:37;94368.89;;;7.99;100.00
16834;BME280;8533;48.426;10.868;2023-03-14T07:00:06;94376.18;;;7.97;100.00
16834;BME280;8533;48.426;10.868;2023-03-14T07:02:33;94383.20;;;7.99;100.00
16834;BME280;8533;48.426;10.868;2023-03-14T07:05:01;94390.23;;;8.01;100.00
16834;BME280;8533;48.426;10.868;2023-03-14T07:07:29;94396.74;;;7.99;100.00
16834;BME280;8533;48.426;10.868;2023-03-14T07:09:56;94406.33;;;8.03;100.00
16834;BME280;8533;48.426;10.868;2023-03-14T07:12:23;94416.22;;;8.04;100.00
16834;BME280;8533;48.426;10.868;2023-03-14T07:14:51;94409.97;;;8.05;100.00
16834;BME280;8533;48.426;10.868;2023-03-14T07:17:18;94412.82;;;8.09;100.00
16834;BME280;8533;48.426;10.868;2023-03-14T07:19:46;94415.69;;;8.07;100.00
16834;BME280;8533;48.426;10.868;2023-03-14T07:22:14;94417.77;;;8.08;100.00
16834;BME280;8533;48.426;10.868;2023-03-14T07:24:41;94406.05;;;8.10;100.00
16834;BME280;8533;48.426;10.868;2023-03-14T07:27:09;94411.48;;;8.11;100.00
16834;BME280;8533;48.426;10.868;2023-03-14T07:29:36;94407.31;;;8.13;100.00
16834;BME280;8533;48.426;10.868;2023-03-14T07:32:03;94402.88;;;8.13;100.00
16834;BME280;8533;48.426;10.868;2023-03-14T07:34:31;94399.75;;;8.16;100.00
16834;BME280;8533;48.426;10.868;2023-03-14T07:36:58;94395.78;;;8.21;100.00
16834;BME280;8533;48.426;10.868;2023-03-14T07:39:27;94397.60;;;8.23;100.00
16834;BME280;8533;48.426;10.868;2023-03-14T07:41:54;94396.55;;;8.27;100.00
16834;BME280;8533;48.426;10.868;2023-03-14T07:44:21;94400.69;;;8.33;100.00
16834;BME280;8533;48.426;10.868;2023-03-14T07:46:49;94400.64;;;8.35;100.00
16834;BME280;8533;48.426;10.868;2023-03-14T07:49:17;94396.20;;;8.38;100.00
16834;BME280;8533;48.426;10.868;2023-03-14T07:51:46;94410.27;;;8.40;100.00
16834;BME280;8533;48.426;10.868;2023-03-14T07:54:13;94400.89;;;8.39;100.00
16834;BME280;8533;48.426;10.868;2023-03-14T07:56:41;94404.52;;;8.43;100.00
16834;BME280;8533;48.426;10.868;2023-03-14T07:59:09;94410.46;;;8.46;100.00
16834;BME280;8533;48.426;10.868;2023-03-14T08:01:38;94412.03;;;8.45;100.00
16834;BME280;8533;48.426;10.868;2023-03-14T08:04:05;94412.02;;;8.47;100.00
16834;BME280;8533;48.426;10.868;2023-03-14T08:06:34;94407.58;;;8.50;100.00
16834;BME280;8533;48.426;10.868;2023-03-14T08:09:02;94396.33;;;8.52;100.00
16834;BME280;8533;48.426;10.868;2023-03-14T08:11:30;94409.60;;;8.56;100.00
16834;BME280;8533;48.426;10.868;2023-03-14T08:13:57;94406.16;;;8.60;100.00
16834;BME280;8533;48.426;10.868;2023-03-14T08:16:25;94406.91;;;8.66;100.00
16834;BME280;8533;48.426;10.868;2023-03-14T08:18:52;94400.86;;;8.70;100.00
16834;BME280;8533;48.426;10.868;2023-03-14T08:21:20;94402.13;;;8.75;100.00
16834;BME280;8533;48.426;10.868;2023-03-14T08:23:47;94397.06;;;8.84;100.00
16834;BME280;8533;48.426;10.868;2023-03-14T08:26:15;94394.16;;;8.91;100.00
16834;BME280;8533;48.426;10.868;2023-03-14T08:28:43;94400.35;;;8.95;100.00
16834;BME280;8533;48.426;10.868;2023-03-14T08:31:10;94399.23;;;9.01;100.00
16834;BME280;8533;48.426;10.868;2023-03-14T08:33:38;94403.53;;;9.15;100.00
16834;BME280;8533;48.426;10.868;2023-03-14T08:36:06;94401.20;;;9.35;100.00
16834;BME280;8533;48.426;10.868;2023-03-14T08:38:34;94399.25;;;9.46;100.00
16834;BME280;8533;48.426;10.868;2023-03-14T08:41:03;94396.19;;;9.60;100.00
16834;BME280;8533;48.426;10.868;2023-03-14T08:43:31;94403.98;;;9.81;100.00
16834;BME280;8533;48.426;10.868;2023-03-14T08:45:59;94402.09;;;9.87;100.00
16834;BME280;8533;48.426;10.868;2023-03-14T08:48:29;94402.12;;;10.03;100.00
16834;BME280;8533;48.426;10.868;2023-03-14T08:51:03;94402.78;;;10.11;100.00
16834;BME280;8533;48.426;10.868;2023-03-14T08:53:26;94395.45;;;10.13;100.00
16834;BME280;8533;48.426;10.868;2023-03-14T08:55:54;94387.05;;;10.14;100.00
16834;BME280;8533;48.426;10.868;2023-03-14T08:58:21;94385.97;;;10.20;100.00
16834;BME280;8533;48.426;10.868;2023-03-14T09:00:50;94394.24;;;10.24;100.00
16834;BME280;8533;48.426;10.868;2023-03-14T09:03:17;94384.26;;;10.29;100.00
16834;BME280;8533;48.426;10.868;2023-03-14T09:05:45;94374.92;;;10.23;100.00
16834;BME280;8533;48.426;10.868;2023-03-14T09:08:12;94379.06;;;10.43;100.00
16834;BME280;8533;48.426;10.868;2023-03-14T09:10:40;94380.67;;;10.55;100.00
16834;BME280;8533;48.426;10.868;2023-03-14T09:13:07;94388.22;;;10.73;100.00
16834;BME280;8533;48.426;10.868;2023-03-14T09:15:35;94390.13;;;10.97;100.00
16834;BME280;8533;48.426;10.868;2023-03-14T09:18:02;94389.63;;;10.81;100.00
16834;BME280;8533;48.426;10.868;2023-03-14T09:20:30;94387.72;;;11.00;100.00
16834;BME280;8533;48.426;10.868;2023-03-14T09:22:58;94383.78;;;11.28;100.00
16834;BME280;8533;48.426;10.868;2023-03-14T09:25:25;94380.89;;;11.16;98.84
16834;BME280;8533;48.426;10.868;2023-03-14T09:27:52;94377.55;;;11.26;99.94
16834;BME280;8533;48.426;10.868;2023-03-14T09:30:20;94370.61;;;11.33;98.92
16834;BME280;8533;48.426;10.868;2023-03-14T09:32:47;94372.02;;;11.91;94.88
16834;BME280;8533;48.426;10.868;2023-03-14T09:35:15;94370.28;;;12.42;92.28
16834;BME280;8533;48.426;10.868;2023-03-14T09:37:42;94368.52;;;12.07;88.22
16834;BME280;8533;48.426;10.868;2023-03-14T09:40:14;94369.58;;;12.06;89.31
16834;BME280;8533;48.426;10.868;2023-03-14T09:42:42;94363.74;;;12.20;88.01
16834;BME280;8533;48.426;10.868;2023-03-14T09:45:13;94353.71;;;12.55;85.98
16834;BME280;8533;48.426;10.868;2023-03-14T09:47:40;94364.30;;;12.73;86.27
16834;BME280;8533;48.426;10.868;2023-03-14T09:50:15;94360.56;;;13.24;83.04
16834;BME280;8533;48.426;10.868;2023-03-14T09:52:56;94366.65;;;13.22;79.72
16834;BME280;8533;48.426;10.868;2023-03-14T09:55:23;94367.69;;;13.32;78.74
16834;BME280;8533;48.426;10.868;2023-03-14T09:57:55;94373.86;;;13.65;77.03
16834;BME280;8533;48.426;10.868;2023-03-14T10:00:24;94366.80;;;13.54;75.22
16834;BME280;8533;48.426;10.868;2023-03-14T10:02:59;94376.17;;;13.58;74.82
16834;BME280;8533;48.426;10.868;2023-03-14T10:05:26;94385.74;;;13.25;75.64
16834;BME280;8533;48.426;10.868;2023-03-14T10:07:55;94380.46;;;13.17;76.77
16834;BME280;8533;48.426;10.868;2023-03-14T10:10:25;94379.30;;;12.81;78.73
16834;BME280;8533;48.426;10.868;2023-03-14T10:13:04;94379.61;;;12.68;79.28
16834;BME280;8533;48.426;10.868;2023-03-14T10:15:31;94387.19;;;12.70;79.40
16834;BME280;8533;48.426;10.868;2023-03-14T10:18:03;94383.98;;;12.50;80.24
16834;BME280;8533;48.426;10.868;2023-03-14T10:20:40;94383.39;;;12.42;79.97
16834;BME280;8533;48.426;10.868;2023-03-14T10:28:32;94383.77;;;12.38;83.36
16834;BME280;8533;48.426;10.868;2023-03-14T10:31:00;94393.66;;;12.30;82.54
16834;BME280;8533;48.426;10.868;2023-03-14T10:33:29;94385.23;;;12.53;81.92
16834;BME280;8533;48.426;10.868;2023-03-14T10:36:17;94380.77;;;12.53;81.63
16834;BME280;8533;48.426;10.868;2023-03-14T10:38:47;94373.09;;;12.46;80.22
16834;BME280;8533;48.426;10.868;2023-03-14T10:41:24;94373.58;;;12.68;80.26
16834;BME280;8533;48.426;10.868;2023-03-14T10:43:50;94374.94;;;12.76;80.35
16834;BME280;8533;48.426;10.868;2023-03-14T10:46:19;94373.53;;;12.70;79.46
16834;BME280;8533;48.426;10.868;2023-03-14T10:48:47;94367.16;;;12.63;80.19
16834;BME280;8533;48.426;10.868;2023-03-14T10:51:27;94373.30;;;12.58;81.63
16834;BME280;8533;48.426;10.868;2023-03-14T10:54:02;94363.91;;;12.46;81.34
16834;BME280;8533;48.426;10.868;2023-03-14T10:56:35;94363.23;;;12.63;81.77
16834;BME280;8533;48.426;10.868;2023-03-14T10:59:04;94369.13;;;12.57;81.14
16834;BME280;8533;48.426;10.868;2023-03-14T11:01:54;94367.13;;;12.43;81.58
16834;BME280;8533;48.426;10.868;2023-03-14T11:10:31;94362.30;;;12.47;79.96
16834;BME280;8533;48.426;10.868;2023-03-14T11:13:12;94357.36;;;12.35;78.99
16834;BME280;8533;48.426;10.868;2023-03-14T11:23:42;94347.11;;;12.67;76.68
16834;BME280;8533;48.426;10.868;2023-03-14T11:26:33;94350.50;;;12.78;77.29
16834;BME280;8533;48.426;10.868;2023-03-14T11:29:14;94348.07;;;12.71;77.83
16834;BME280;8533;48.426;10.868;2023-03-14T11:31:40;94350.89;;;12.63;76.84
16834;BME280;8533;48.426;10.868;2023-03-14T11:34:28;94346.25;;;12.49;77.81
16834;BME280;8533;48.426;10.868;2023-03-14T11:37:10;94346.86;;;12.46;77.51
16834;BME280;8533;48.426;10.868;2023-03-14T11:39:43;94353.02;;;12.30;78.90
16834;BME280;8533;48.426;10.868;2023-03-14T11:42:28;94356.70;;;12.18;79.61
16834;BME280;8533;48.426;10.868;2023-03-14T11:45:00;94366.59;;;12.10;80.00
16834;BME280;8533;48.426;10.868;2023-03-14T11:47:37;94361.05;;;12.00;79.37
16834;BME280;8533;48.426;10.868;2023-03-14T11:50:15;94362.06;;;12.02;80.75
16834;BME280;8533;48.426;10.868;2023-03-14T11:52:50;94352.20;;;11.99;80.10
16834;BME280;8533;48.426;10.868;2023-03-14T11:55:21;94359.44;;;12.02;79.68
16834;BME280;8533;48.426;10.868;2023-03-14T11:57:50;94356.90;;;11.99;78.88
16834;BME280;8533;48.426;10.868;2023-03-14T12:00:24;94365.34;;;11.96;79.85
16834;BME280;8533;48.426;10.868;2023-03-14T12:03:01;94360.39;;;11.95;79.82
16834;BME280;8533;48.426;10.868;2023-03-14T12:05:45;94358.84;;;11.82;78.96
16834;BME280;8533;48.426;10.868;2023-03-14T12:10:59;94351.84;;;12.14;77.17
16834;BME280;8533;48.426;10.868;2023-03-14T12:13:22;94363.74;;;12.20;77.13
16834;BME280;8533;48.426;10.868;2023-03-14T12:19:13;94351.11;;;12.11;76.23
16834;BME280;8533;48.426;10.868;2023-03-14T12:24:20;94349.38;;;12.17;77.21
16834;BME280;8533;48.426;10.868;2023-03-14T12:26:53;94344.80;;;12.12;78.18
16834;BME280;8533;48.426;10.868;2023-03-14T12:29:21;94351.70;;;11.97;78.24
16834;BME280;8533;48.426;10.868;2023-03-14T12:34:27;94362.05;;;11.79;82.84
16834;BME280;8533;48.426;10.868;2023-03-14T12:37:00;94371.77;;;11.65;86.29
16834;BME280;8533;48.426;10.868;2023-03-14T12:39:47;94363.62;;;11.42;94.59
16834;BME280;8533;48.426;10.868;2023-03-14T12:42:38;94358.40;;;11.15;96.30
16834;BME280;8533;48.426;10.868;2023-03-14T12:45:24;94355.89;;;11.09;99.08
16834;BME280;8533;48.426;10.868;2023-03-14T12:50:44;94367.17;;;11.07;100.00
16834;BME280;8533;48.426;10.868;2023-03-14T12:53:21;94360.87;;;11.08;100.00
16834;BME280;8533;48.426;10.868;2023-03-14T12:55:54;94369.61;;;11.18;100.00
16834;BME280;8533;48.426;10.868;2023-03-14T12:58:30;94365.03;;;11.23;100.00
16834;BME280;8533;48.426;10.868;2023-03-14T13:00:56;94377.72;;;11.30;99.27
16834;BME280;8533;48.426;10.868;2023-03-14T13:03:39;94373.45;;;11.20;97.67
16834;BME280;8533;48.426;10.868;2023-03-14T13:06:08;94371.88;;;11.08;98.01
16834;BME280;8533;48.426;10.868;2023-03-14T13:08:44;94382.59;;;11.09;97.86
16834;BME280;8533;48.426;10.868;2023-03-14T13:11:15;94384.75;;;11.04;99.19
16834;BME280;8533;48.426;10.868;2023-03-14T13:13:47;94395.78;;;10.88;97.76
16834;BME280;8533;48.426;10.868;2023-03-14T13:16:22;94401.81;;;10.72;100.00
16834;BME280;8533;48.426;10.868;2023-03-14T13:18:50;94406.58;;;10.70;100.00
16834;BME280;8533;48.426;10.868;2023-03-14T13:21:22;94426.27;;;10.49;100.00
16834;BME280;8533;48.426;10.868;2023-03-14T13:24:07;94413.53;;;10.45;100.00
16834;BME280;8533;48.426;10.868;2023-03-14T13:26:37;94429.52;;;10.24;100.00
16834;BME280;8533;48.426;10.868;2023-03-14T13:29:22;94447.70;;;10.13;100.00
16834;BME280;8533;48.426;10.868;2023-03-14T13:31:55;94463.66;;;9.72;100.00
16834;BME280;8533;48.426;10.868;2023-03-14T13:34:28;94472.59;;;9.44;100.00
16834;BME280;8533;48.426;10.868;2023-03-14T13:36:56;94476.33;;;9.12;100.00
16834;BME280;8533;48.426;10.868;2023-03-14T13:39:26;94491.08;;;8.98;100.00
16834;BME280;8533;48.426;10.868;2023-03-14T13:41:59;94487.48;;;8.91;100.00
16834;BME280;8533;48.426;10.868;2023-03-14T13:44:35;94493.52;;;8.84;100.00
16834;BME280;8533;48.426;10.868;2023-03-14T13:47:03;94506.09;;;8.79;100.00
16834;BME280;8533;48.426;10.868;2023-03-14T13:49:32;94509.00;;;8.75;100.00
16834;BME280;8533;48.426;10.868;2023-03-14T13:52:02;94514.80;;;8.67;100.00
16834;BME280;8533;48.426;10.868;2023-03-14T13:54:31;94521.39;;;8.55;100.00